Time;durP1;ratioP1;P1;durP2;ratioP2;P2;SDS_P1;SDS_P2;PMS_P1;PMS_P2;Temp;Humidity;BMP_temperature;BMP_pressure;BME280_temperature;BME280_humidity;BME280_pressure;Samples;Min_cycle;Max_cycle;Signal;HPM_P1;HPM_P2
2022/04/22 00:00:19;;;;;;;24.67;17.13;;;359.10;2022.40;;;;;;5096215;28;20032;-78
2022/04/22 00:02:45;;;;;;;16.77;11.50;;;359.00;2048.00;;;;;;5096347;28;20028;-78
2022/04/22 00:05:11;;;;;;;14.05;11.02;;;358.90;2176.00;;;;;;5095246;28;20120;-76
2022/04/22 00:07:37;;;;;;;14.35;11.52;;;358.80;2201.60;;;;;;5096373;28;20031;-76
2022/04/22 00:10:05;;;;;;;19.13;12.10;;;358.70;2227.20;;;;;;5094988;28;20031;-77
2022/04/22 00:12:31;;;;;;;16.52;11.93;;;358.70;2278.40;;;;;;5095020;28;20472;-77
2022/04/22 00:14:56;;;;;;;14.23;11.95;;;358.70;2329.60;;;;;;5094927;28;20042;-77
2022/04/22 00:17:22;;;;;;;16.27;12.82;;;358.70;2329.60;;;;;;5094944;28;20028;-76
2022/04/22 00:19:48;;;;;;;16.63;12.68;;;358.70;2329.60;;;;;;5096103;28;20472;-77
2022/04/22 00:22:14;;;;;;;16.55;13.45;;;358.80;2329.60;;;;;;5094399;28;20047;-77
2022/04/22 00:24:40;;;;;;;16.92;12.77;;;358.80;2329.60;;;;;;5094174;28;20411;-76
2022/04/22 00:27:06;;;;;;;19.73;14.05;;;358.90;2329.60;;;;;;5094348;28;20024;-76
2022/04/22 00:29:31;;;;;;;17.00;13.63;;;358.90;2329.60;;;;;;5094686;28;20062;-76
2022/04/22 00:31:57;;;;;;;17.50;13.93;;;359.00;2329.60;;;;;;5097857;28;20021;-77
2022/04/22 00:34:23;;;;;;;19.55;15.75;;;359.00;2329.60;;;;;;5097959;28;20552;-76
2022/04/22 00:36:49;;;;;;;16.90;13.15;;;359.00;2329.60;;;;;;5116251;28;20023;-77
2022/04/22 00:39:14;;;;;;;18.48;15.55;;;359.00;2329.60;;;;;;5116140;28;20050;-77
2022/04/22 00:41:40;;;;;;;19.73;16.40;;;359.00;2329.60;;;;;;5097879;28;20031;-77
2022/04/22 00:44:06;;;;;;;34.72;20.80;;;359.00;2329.60;;;;;;5097276;28;20035;-77
2022/04/22 00:46:32;;;;;;;23.70;20.52;;;358.90;2329.60;;;;;;5096598;28;20377;-77
2022/04/22 00:48:58;;;;;;;22.85;20.23;;;359.00;2329.60;;;;;;5116059;28;20027;-76
2022/04/22 00:51:24;;;;;;;23.17;17.52;;;359.00;2329.60;;;;;;5097670;28;20024;-76
2022/04/22 00:53:54;;;;;;;25.95;21.85;;;358.90;2329.60;;;;;;5096335;28;20437;-76
2022/04/22 00:56:20;;;;;;;20.20;17.48;;;358.90;2329.60;;;;;;5114765;28;20416;-80
2022/04/22 00:58:49;;;;;;;22.85;18.83;;;358.90;2329.60;;;;;;5115829;28;20027;-75
2022/04/22 01:01:15;;;;;;;24.38;20.58;;;358.80;2329.60;;;;;;5116463;28;20031;-77
2022/04/22 01:11:58;;;;;;;19.60;15.55;;;358.40;2329.60;;;;;;5116155;28;20038;-76
2022/04/22 01:14:24;;;;;;;;;;;358.40;2329.60;;;;;;5097606;28;20031;-76
2022/04/22 01:16:50;;;;;;;;;;;333.70;2329.60;;;;;;5097425;28;19908;-76
2022/04/22 01:19:15;;;;;;;;;;;333.70;2329.60;;;;;;5115447;28;19904;-75
2022/04/22 01:21:41;;;;;;;;;;;333.60;2329.60;;;;;;5115438;28;19998;-75
2022/04/22 01:24:06;;;;;;;;;;;333.60;2329.60;;;;;;5115700;28;19950;-74
2022/04/22 01:26:32;;;;;;;;;;;333.60;2329.60;;;;;;5115704;28;19987;-76
2022/04/22 01:28:58;;;;;;;;;;;333.60;2329.60;;;;;;5097297;28;19946;-75
2022/04/22 01:31:24;;;;;;;;;;;333.50;2329.60;;;;;;5097240;28;19904;-76
2022/04/22 01:33:50;;;;;;;;;;;333.60;2329.60;;;;;;5097125;28;19916;-76
2022/04/22 01:36:16;;;;;;;;;;;333.50;2329.60;;;;;;5115523;28;19903;-75
2022/04/22 01:38:42;;;;;;;;;;;333.50;2329.60;;;;;;5097085;28;19904;-75
2022/04/22 01:41:07;;;;;;;;;;;333.50;2329.60;;;;;;5097467;28;19990;-77
2022/04/22 01:43:34;;;;;;;;;;;333.50;2329.60;;;;;;5115301;28;19904;-76
2022/04/22 01:46:00;;;;;;;22.00;13.77;;;333.40;2329.60;;;;;;5096672;28;19911;-76
2022/04/22 01:48:26;;;;;;;20.05;15.45;;;333.50;2329.60;;;;;;5096494;28;20023;-77
2022/04/22 01:50:52;;;;;;;;;;;333.40;2329.60;;;;;;5097343;28;20026;-76
2022/04/22 01:53:17;;;;;;;21.48;17.10;;;333.40;2329.60;;;;;;5096544;28;19904;-76
2022/04/22 01:55:43;;;;;;;21.15;16.65;;;333.40;2329.60;;;;;;5095727;28;20059;-77
2022/04/22 01:58:09;;;;;;;19.83;16.92;;;333.40;2329.60;;;;;;5096426;28;20088;-77
2022/04/22 02:00:35;;;;;;;23.85;18.80;;;333.30;2329.60;;;;;;5096708;28;20114;-78
2022/04/22 02:03:01;;;;;;;23.67;18.20;;;333.30;2329.60;;;;;;5114658;28;20024;-77
2022/04/22 02:05:27;;;;;;;22.75;18.05;;;333.30;2329.60;;;;;;5114706;28;20011;-77
2022/04/22 02:07:52;;;;;;;25.90;19.45;;;333.30;2329.60;;;;;;5114894;28;20380;-76
2022/04/22 02:10:19;;;;;;;23.92;18.50;;;333.40;2329.60;;;;;;5096150;28;20129;-78
2022/04/22 02:12:45;;;;;;;21.23;18.08;;;333.40;2329.60;;;;;;5114702;28;20023;-78
2022/04/22 02:15:12;;;;;;;22.02;17.85;;;333.40;2329.60;;;;;;5096266;28;20032;-77
2022/04/22 02:17:38;;;;;;;25.38;17.85;;;333.30;2329.60;;;;;;5096102;28;20392;-76
2022/04/22 02:20:04;;;;;;;21.83;18.05;;;333.30;2329.60;;;;;;5095833;28;20019;-77
2022/04/22 02:22:30;;;;;;;24.67;17.88;;;333.40;2329.60;;;;;;5113998;28;20099;-79
2022/04/22 02:24:57;;;;;;;26.60;19.52;;;333.40;2329.60;;;;;;5095918;28;20026;-78
2022/04/22 02:30:07;;;;;;;25.58;18.23;;;333.30;2329.60;;;;;;5114594;28;20115;-79
2022/04/22 02:32:33;;;;;;;23.85;18.75;;;333.30;2329.60;;;;;;5095758;28;20400;-75
2022/04/22 02:34:58;;;;;;;;;;;333.30;2329.60;;;;;;5096606;28;20043;-76
2022/04/22 02:37:25;;;;;;;24.75;17.98;;;333.30;2329.60;;;;;;5096007;28;19908;-75
2022/04/22 02:39:51;;;;;;;24.17;18.25;;;333.40;2329.60;;;;;;5096188;28;20062;-77
2022/04/22 02:47:45;;;;;;;24.17;18.45;;;333.20;2329.60;;;;;;5114069;28;20084;-79
2022/04/22 02:50:11;;;;;;;23.52;17.90;;;333.20;2329.60;;;;;;5095733;28;20055;-78
2022/04/22 02:52:37;;;;;;;21.73;18.05;;;333.30;2329.60;;;;;;5113885;28;20077;-78
2022/04/22 02:55:03;;;;;;;23.77;17.85;;;333.20;2329.60;;;;;;5095841;28;20487;-76
2022/04/22 02:57:29;;;;;;;24.50;18.75;;;333.20;2329.60;;;;;;5095771;28;20026;-76
2022/04/22 02:59:55;;;;;;;22.67;17.92;;;333.30;2329.60;;;;;;5114664;28;20024;-76
2022/04/22 03:02:21;;;;;;;25.83;18.75;;;333.20;2329.60;;;;;;5095842;28;20054;-80
2022/04/22 03:04:47;;;;;;;22.17;18.65;;;333.10;2329.60;;;;;;5096024;28;20539;-79
2022/04/22 03:07:13;;;;;;;22.00;18.13;;;333.20;2329.60;;;;;;5117162;28;20380;-78
2022/04/22 03:09:39;;;;;;;25.80;20.65;;;333.20;2329.60;;;;;;5099895;28;20042;-77
2022/04/22 03:12:06;;;;;;;25.25;18.25;;;333.30;2329.60;;;;;;5100337;28;20399;-77
2022/04/22 03:14:32;;;;;;;22.30;17.83;;;333.30;2329.60;;;;;;5100244;28;20039;-80
2022/04/22 03:16:58;;;;;;;24.88;18.08;;;333.20;2329.60;;;;;;5101127;28;20023;-80
2022/04/22 03:19:24;;;;;;;24.95;18.75;;;333.20;2329.60;;;;;;5100199;28;20464;-80
2022/04/22 03:21:49;;;;;;;22.23;18.45;;;333.10;2329.60;;;;;;5100165;28;20122;-81
2022/04/22 03:24:15;;;;;;;24.30;18.25;;;333.00;2329.60;;;;;;5099726;28;20419;-81
2022/04/22 03:26:41;;;;;;;20.95;16.52;;;333.10;2329.60;;;;;;5099544;28;20392;-80
2022/04/22 03:29:07;;;;;;;20.00;17.80;;;333.00;2329.60;;;;;;5117432;28;20399;-80
2022/04/22 03:31:33;;;;;;;21.25;16.77;;;333.00;2329.60;;;;;;5099688;28;20034;-77
2022/04/22 03:33:58;;;;;;;21.38;17.40;;;333.00;2329.60;;;;;;5099364;28;20501;-79
2022/04/22 03:36:24;;;;;;;21.27;16.08;;;333.10;2329.60;;;;;;5099252;28;20020;-79
2022/04/22 03:38:50;;;;;;;18.52;16.50;;;333.10;2329.60;;;;;;5099263;28;20035;-77
2022/04/22 03:41:16;;;;;;;25.88;17.42;;;333.20;2329.60;;;;;;5099158;28;20388;-80
2022/04/22 03:43:42;;;;;;;20.83;15.35;;;333.30;2329.60;;;;;;5117442;28;20026;-80
2022/04/22 03:46:08;;;;;;;22.75;17.20;;;333.20;2329.60;;;;;;5099295;28;20034;-79
2022/04/22 03:48:34;;;;;;;22.83;15.93;;;333.20;2329.60;;;;;;5117648;28;20058;-79
2022/04/22 03:51:00;;;;;;;17.63;14.73;;;333.20;2329.60;;;;;;5117313;28;20110;-77
2022/04/22 03:53:25;;;;;;;17.33;14.20;;;333.20;2329.60;;;;;;5098935;28;20463;-80
2022/04/22 03:55:51;;;;;;;21.27;16.20;;;333.20;2329.60;;;;;;5099074;28;20147;-77
2022/04/22 03:58:17;;;;;;;22.50;15.90;;;333.10;2329.60;;;;;;5098818;28;20019;-79
2022/04/22 04:00:49;;;;;;;20.38;14.85;;;333.10;2329.60;;;;;;5116826;28;20487;-78
2022/04/22 04:03:16;;;;;;;23.02;15.35;;;333.20;2329.60;;;;;;5116824;28;20023;-78
2022/04/22 04:05:50;;;;;;;20.05;14.98;;;333.10;2329.60;;;;;;5098502;28;20028;-77
2022/04/22 04:08:20;;;;;;;;;;;333.20;2329.60;;;;;;5099009;28;20024;-75
2022/04/22 04:16:17;;;;;;;21.20;15.55;;;333.30;2329.60;;;;;;5117307;28;20034;-75
2022/04/22 04:18:43;;;;;;;21.92;15.75;;;333.20;2329.60;;;;;;5097661;28;20224;-74
2022/04/22 04:23:56;;;;;;;20.42;14.18;;;333.20;2329.60;;;;;;5116807;28;20449;-74
2022/04/22 04:26:24;;;;;;;22.20;14.77;;;333.30;2329.60;;;;;;5116438;28;20036;-74
2022/04/22 04:28:50;;;;;;;19.98;13.55;;;333.30;2329.60;;;;;;5098058;28;20072;-74
2022/04/22 04:31:17;;;;;;;20.90;14.43;;;333.30;2329.60;;;;;;5098061;28;20066;-74
2022/04/22 04:33:44;;;;;;;16.08;13.23;;;333.30;2329.60;;;;;;5097766;28;20048;-74
2022/04/22 04:36:11;;;;;;;16.02;13.30;;;333.40;2329.60;;;;;;5097855;28;20027;-76
2022/04/22 04:38:41;;;;;;;20.35;14.65;;;333.30;2329.60;;;;;;5116195;28;20077;-75
2022/04/22 04:41:08;;;;;;;18.65;15.60;;;333.30;2329.60;;;;;;5097921;28;20038;-75
2022/04/22 04:43:40;;;;;;;22.88;15.20;;;333.30;2329.60;;;;;;5097810;28;20024;-77
2022/04/22 04:46:06;;;;;;;22.17;14.65;;;333.30;2329.60;;;;;;5097759;28;20024;-76
2022/04/22 04:48:34;;;;;;;22.70;15.50;;;333.20;2329.60;;;;;;5115996;28;20103;-75
2022/04/22 04:51:00;;;;;;;23.85;15.32;;;333.30;2329.60;;;;;;5097721;28;20020;-76
2022/04/22 04:53:26;;;;;;;23.17;14.40;;;333.30;2329.60;;;;;;5097535;28;20019;-76
2022/04/22 04:55:53;;;;;;;20.48;13.98;;;333.30;2329.60;;;;;;5097698;28;20030;-75
2022/04/22 04:58:20;;;;;;;20.25;13.98;;;333.20;2329.60;;;;;;5097535;28;20024;-76
2022/04/22 05:00:46;;;;;;;19.08;14.38;;;333.30;2329.60;;;;;;5115491;28;20027;-77
2022/04/22 05:03:12;;;;;;;18.23;14.38;;;333.30;2329.60;;;;;;5115719;28;20024;-78
2022/04/22 05:05:38;;;;;;;19.63;15.88;;;333.30;2329.60;;;;;;5114460;28;20731;-76
2022/04/22 05:08:05;;;;;;;21.67;15.30;;;333.40;2329.60;;;;;;5097367;28;20024;-79
2022/04/22 05:10:32;;;;;;;20.15;14.85;;;333.50;2329.60;;;;;;5097463;28;20020;-77
2022/04/22 05:12:59;;;;;;;17.05;12.98;;;333.60;2329.60;;;;;;5097299;28;20020;-79
2022/04/22 05:15:26;;;;;;;18.70;15.75;;;333.50;2329.60;;;;;;5096007;28;20398;-77
2022/04/22 05:17:54;;;;;;;18.20;15.38;;;333.50;2329.60;;;;;;5096063;28;20504;-79
2022/04/22 05:20:25;;;;;;;16.25;13.52;;;333.70;2329.60;;;;;;5096138;28;20939;-79
2022/04/22 05:22:53;;;;;;;16.02;13.27;;;333.70;2329.60;;;;;;5115057;28;20366;-77
2022/04/22 05:25:19;;;;;;;18.98;14.32;;;333.70;2329.60;;;;;;5114228;28;20407;-76
2022/04/22 05:27:45;;;;;;;14.98;12.07;;;358.40;2329.60;;;;;;5095874;28;20379;-77
2022/04/22 05:32:57;;;;;;;17.10;12.17;;;358.60;2329.60;;;;;;5114166;28;20821;-76
2022/04/22 05:35:27;;;;;;;14.48;11.88;;;358.60;2329.60;;;;;;5114272;28;20818;-76
2022/04/22 05:37:58;;;;;;;14.57;12.70;;;358.60;2329.60;;;;;;5096071;28;20827;-75
2022/04/22 05:40:27;;;;;;;15.20;11.70;;;358.80;2329.60;;;;;;5114058;28;20375;-82
2022/04/22 05:42:53;;;;;;;15.95;13.05;;;358.90;2329.60;;;;;;5096328;28;20371;-78
2022/04/22 05:45:21;;;;;;;21.77;13.63;;;384.00;2329.60;;;;;;5095769;28;20433;-78
2022/04/22 05:47:48;;;;;;;15.52;11.65;;;358.90;2329.60;;;;;;5114084;28;20394;-81
2022/04/22 05:50:15;;;;;;;17.27;12.05;;;358.80;2329.60;;;;;;5095514;28;20379;-80
2022/04/22 05:52:42;;;;;;;14.57;11.85;;;358.80;2329.60;;;;;;5095846;28;20370;-80
2022/04/22 05:55:17;;;;;;;12.70;10.48;;;358.90;2329.60;;;;;;5113963;28;20398;-81
2022/04/22 05:57:44;;;;;;;14.10;10.70;;;358.80;2329.60;;;;;;5113739;28;20861;-81
2022/04/22 06:00:12;;;;;;;13.88;10.25;;;358.90;2329.60;;;;;;5113529;28;20401;-75
2022/04/22 06:02:42;;;;;;;16.40;10.30;;;358.90;2329.60;;;;;;5095186;28;20421;-76
2022/04/22 06:05:09;;;;;;;11.98;8.70;;;358.80;2329.60;;;;;;5095312;28;20462;-80
2022/04/22 06:07:37;;;;;;;15.15;9.77;;;358.90;2329.60;;;;;;5095148;28;20386;-80
2022/04/22 06:12:48;;;;;;;13.15;9.73;;;359.20;2329.60;;;;;;5113695;28;20416;-75
2022/04/22 06:15:14;;;;;;;11.57;9.10;;;384.00;2329.60;;;;;;5113195;28;20871;-76
2022/04/22 06:17:40;;;;;;;18.63;14.10;;;384.10;2329.60;;;;;;5094880;28;20373;-76
2022/04/22 06:20:07;;;;;;;19.50;13.95;;;384.20;2329.60;;;;;;5094856;28;20375;-80
2022/04/22 06:22:32;;;;;;;17.83;13.38;;;384.30;2329.60;;;;;;5093927;28;20367;-77
2022/04/22 06:24:58;;;;;;;14.13;11.03;;;384.50;2329.60;;;;;;5111319;28;20381;-77
2022/04/22 06:27:34;;;;;;;14.48;11.38;;;384.50;2329.60;;;;;;5092877;28;20370;-80
2022/04/22 06:30:04;;;;;;;11.35;9.00;;;384.50;2329.60;;;;;;5093652;28;20383;-80
2022/04/22 06:32:30;;;;;;;11.75;9.18;;;384.70;2329.60;;;;;;5113188;28;20382;-78
2022/04/22 06:34:56;;;;;;;14.55;9.20;;;409.60;2355.20;;;;;;5094437;28;20399;-82
2022/04/22 06:37:23;;;;;;;17.00;10.75;;;409.60;2355.20;;;;;;5113344;28;20375;-80
2022/04/22 06:48:03;;;;;;;12.70;7.78;;;410.40;2355.20;;;;;;5113659;28;20470;-80
2022/04/22 06:50:29;;;;;;;13.55;9.52;;;410.50;2355.20;;;;;;5113517;28;20415;-77
2022/04/22 06:52:55;;;;;;;11.00;6.90;;;435.30;2355.20;;;;;;5095930;28;20465;-80
2022/04/22 06:55:21;;;;;;;11.30;8.38;;;435.20;2355.20;;;;;;5113469;28;20477;-83
2022/04/22 06:57:49;;;;;;;12.30;9.03;;;435.40;2355.20;;;;;;5094810;28;20371;-78
2022/04/22 07:00:18;;;;;;;10.40;7.60;;;435.50;2355.20;;;;;;5113121;28;20436;-79
2022/04/22 07:02:45;;;;;;;12.57;9.52;;;435.70;2355.20;;;;;;5094726;28;20766;-77
2022/04/22 07:05:12;;;;;;;12.32;8.30;;;436.00;2355.20;;;;;;5112693;28;20462;-79
2022/04/22 07:07:38;;;;;;;10.38;6.93;;;460.80;2380.80;;;;;;5113951;28;20371;-78
2022/04/22 07:10:05;;;;;;;10.80;8.57;;;460.90;2380.80;;;;;;5095266;28;20363;-84
2022/04/22 07:12:33;;;;;;;9.88;6.57;;;460.90;2380.80;;;;;;5114957;28;20373;-84
2022/04/22 07:15:06;;;;;;;10.95;7.45;;;461.40;2380.80;;;;;;5115328;28;20395;-77
2022/04/22 07:17:37;;;;;;;10.60;6.93;;;461.60;2380.80;;;;;;5095661;28;20447;-77
2022/04/22 07:20:06;;;;;;;11.68;6.82;;;461.60;2380.80;;;;;;5113523;28;20376;-79
2022/04/22 07:22:34;;;;;;;10.80;6.00;;;461.70;2380.80;;;;;;5095468;28;20444;-83
2022/04/22 07:25:00;;;;;;;9.00;5.15;;;486.50;2380.80;;;;;;5114684;28;20593;-81
2022/04/22 07:27:27;;;;;;;7.60;5.10;;;486.60;2380.80;;;;;;5114144;28;20453;-80
2022/04/22 07:29:58;;;;;;;8.02;5.40;;;486.80;2380.80;;;;;;5114821;28;20076;-80
2022/04/22 07:32:25;;;;;;;10.38;5.20;;;487.10;2380.80;;;;;;5092733;28;20055;-77
2022/04/22 07:34:52;;;;;;;6.68;4.70;;;486.90;2380.80;;;;;;5093603;28;20028;-78
2022/04/22 07:37:18;;;;;;;10.00;5.20;;;487.10;2380.80;;;;;;5092590;28;20016;-79
2022/04/22 07:39:44;;;;;;;9.20;5.65;;;487.10;2380.80;;;;;;5092303;28;20032;-76
2022/04/22 07:42:18;;;;;;;11.55;5.13;;;487.20;2380.80;;;;;;5092506;28;20048;-76
2022/04/22 07:47:34;;;;;;;10.48;5.00;;;512.30;2380.80;;;;;;5094834;28;20076;-79
2022/04/22 07:50:05;;;;;;;11.52;5.50;;;512.20;2380.80;;;;;;5096403;28;20024;-77
2022/04/22 07:52:32;;;;;;;14.15;5.88;;;512.40;2380.80;;;;;;5092940;28;20082;-78
2022/04/22 07:54:58;;;;;;;10.38;5.20;;;512.60;2380.80;;;;;;5097202;28;20396;-79
2022/04/22 07:57:24;;;;;;;10.18;6.03;;;512.20;2380.80;;;;;;5095650;28;20017;-75
2022/04/22 07:59:50;;;;;;;10.10;5.30;;;512.30;2380.80;;;;;;5095849;28;20023;-77
2022/04/22 08:02:16;;;;;;;10.65;5.13;;;512.00;2380.80;;;;;;5095973;28;20027;-78
2022/04/22 08:04:43;;;;;;;13.10;5.88;;;512.60;2380.80;;;;;;5096393;28;20111;-75
2022/04/22 08:07:09;;;;;;;10.80;4.75;;;;;;;;;;5096108;28;20023;-81
2022/04/22 08:09:36;;;;;;;14.55;5.75;;;;;;;;;;5095772;28;20030;-77
2022/04/22 08:12:02;;;;;;;14.50;5.72;;;537.60;2406.40;;;;;;5095203;28;20020;-78
2022/04/22 08:14:28;;;;;;;25.92;5.75;;;537.70;2355.20;;;;;;5095721;28;20028;-76
2022/04/22 08:16:55;;;;;;;9.57;5.28;;;538.30;2380.80;;;;;;5094984;28;20553;-79
2022/04/22 08:19:20;;;;;;;9.73;4.88;;;538.30;2329.60;;;;;;5095570;28;20032;-81
2022/04/22 08:21:46;;;;;;;16.33;5.85;;;538.10;2329.60;;;;;;5097354;28;20533;-78
2022/04/22 08:24:12;;;;;;;13.60;5.78;;;538.00;2304.00;;;;;;5094797;28;20073;-76
2022/04/22 08:26:38;;;;;;;8.43;5.38;;;538.10;2304.00;;;;;;5095179;28;20020;-75
2022/04/22 08:29:04;;;;;;;14.43;6.28;;;538.20;2329.60;;;;;;5096091;28;20099;-78
2022/04/22 08:31:31;;;;;;;12.32;5.22;;;538.10;2278.40;;;;;;5096298;28;20056;-78
2022/04/22 08:33:57;;;;;;;11.07;6.30;;;538.40;2252.80;;;;;;5094488;28;20549;-76
2022/04/22 08:36:27;;;;;;;15.85;9.65;;;538.50;2252.80;;;;;;5095971;28;20404;-80
2022/04/22 08:38:53;;;;;;;50.42;9.52;;;538.00;2278.40;;;;;;5094560;28;20027;-77
2022/04/22 08:41:23;;;;;;;18.85;7.82;;;537.60;2252.80;;;;;;5095976;28;20024;-79
2022/04/22 08:43:56;;;;;;;14.27;7.78;;;512.50;2304.00;;;;;;5095942;28;20035;-78
2022/04/22 08:51:55;;;;;;;15.90;7.00;;;487.20;2380.80;;;;;;5096393;28;20537;-80
2022/04/22 08:54:21;;;;;;;18.10;8.65;;;487.20;2380.80;;;;;;5094410;28;20039;-76
2022/04/22 08:56:50;;;;;;;15.25;8.18;;;512.00;2380.80;;;;;;5095480;28;20020;-80
2022/04/22 08:59:16;;;;;;;12.15;7.15;;;512.00;2380.80;;;;;;5095568;28;20021;-79
2022/04/22 09:01:42;;;;;;;15.45;9.00;;;512.20;2380.80;;;;;;5094012;28;20115;-76
2022/04/22 09:04:08;;;;;;;15.80;8.15;;;512.30;2355.20;;;;;;5095390;28;20104;-74
2022/04/22 09:06:34;;;;;;;10.35;6.50;;;512.30;2329.60;;;;;;5094332;28;20039;-78
2022/04/22 09:09:00;;;;;;;16.92;7.13;;;512.20;2329.60;;;;;;5094015;28;20024;-79
2022/04/22 09:11:29;;;;;;;14.82;7.35;;;512.20;2355.20;;;;;;5095394;28;20025;-80
2022/04/22 09:13:55;;;;;;;9.32;6.05;;;512.20;2355.20;;;;;;5094811;28;20040;-77
2022/04/22 09:16:22;;;;;;;11.88;8.55;;;512.10;2329.60;;;;;;5094127;28;20023;-77
2022/04/22 09:18:57;;;;;;;9.52;5.63;;;512.30;2380.80;;;;;;5095253;28;20031;-79
2022/04/22 09:21:24;;;;;;;11.25;5.63;;;512.40;2380.80;;;;;;5095445;28;20021;-83
2022/04/22 09:23:50;;;;;;;9.98;5.38;;;512.00;2380.80;;;;;;5095044;28;20043;-79
2022/04/22 09:26:26;;;;;;;8.02;5.00;;;512.10;2355.20;;;;;;5093871;28;20062;-76
2022/04/22 09:29:11;;;;;;;13.57;6.00;;;512.00;2355.20;;;;;;5090713;28;20016;-77
2022/04/22 09:31:47;;;;;;;14.10;6.63;;;512.20;2329.60;;;;;;5054786;28;20428;-80
2022/04/22 09:34:14;;;;;;;15.02;5.40;;;512.50;2329.60;;;;;;5095007;28;20036;-76
2022/04/22 09:44:59;;;;;;;8.50;5.32;;;538.20;2227.20;;;;;;5095106;28;20081;-79
2022/04/22 09:47:32;;;;;;;10.25;5.70;;;538.40;2201.60;;;;;;5076372;28;20035;-77
2022/04/22 09:49:59;;;;;;;10.38;5.85;;;;;;;;;;5076517;28;20024;-76
2022/04/22 09:52:29;;;;;;;12.65;6.38;;;;;;;;;;5094353;28;20081;-77
2022/04/22 09:55:02;;;;;;;10.82;6.05;;;563.70;2124.80;;;;;;5093727;28;20027;-76
2022/04/22 09:57:50;;;;;;;12.77;5.50;;;;;;;;;;5091991;28;20383;-81
2022/04/22 10:00:16;;;;;;;13.25;6.13;;;564.00;2048.00;;;;;;5075067;28;20372;-79
2022/04/22 10:02:43;;;;;;;17.35;5.43;;;588.80;2048.00;;;;;;5075056;28;20779;-82
2022/04/22 10:05:12;;;;;;;11.00;5.00;;;589.20;1996.80;;;;;;5075071;28;20888;-78
2022/04/22 10:07:42;;;;;;;9.27;4.70;;;589.70;1945.60;;;;;;5074811;28;20377;-78
2022/04/22 10:10:10;;;;;;;11.33;5.33;;;614.40;1894.40;;;;;;5093040;28;20420;-79
2022/04/22 10:12:37;;;;;;;11.57;4.32;;;614.50;1843.20;;;;;;5093289;28;20361;-80
2022/04/22 10:15:06;;;;;;;10.30;4.93;;;589.60;1843.20;;;;;;5091751;28;20392;-82
2022/04/22 10:17:34;;;;;;;12.63;6.05;;;614.50;1843.20;;;;;;5092449;28;20498;-81
2022/04/22 10:20:01;;;;;;;12.23;5.00;;;614.70;1817.60;;;;;;5074680;28;20376;-76
2022/04/22 10:22:31;;;;;;;13.63;5.00;;;614.80;1792.00;;;;;;5074679;28;20453;-84
2022/04/22 10:24:58;;;;;;;14.35;5.28;;;614.80;1766.40;;;;;;5092999;28;20434;-78
2022/04/22 10:27:24;;;;;;;10.73;4.80;;;614.70;1766.40;;;;;;5106475;28;20363;-76
2022/04/22 10:29:53;;;;;;;9.43;5.00;;;614.90;1766.40;;;;;;5111932;28;20435;-79
2022/04/22 10:32:20;;;;;;;19.35;5.13;;;615.30;1664.00;;;;;;5111014;28;20395;-77
2022/04/22 10:34:46;;;;;;;12.77;5.60;;;640.00;1715.20;;;;;;5093626;28;20483;-79
2022/04/22 10:37:20;;;;;;;12.27;5.15;;;640.20;1689.60;;;;;;5094521;28;20410;-76
2022/04/22 10:39:51;;;;;;;13.73;5.03;;;640.00;1638.40;;;;;;5094675;28;20428;-77
2022/04/22 10:42:17;;;;;;;11.43;5.07;;;640.20;1612.80;;;;;;5094490;28;20889;-76
2022/04/22 10:47:38;;;;;;;;;;;640.60;1612.80;;;;;;5114322;28;20055;-73
2022/04/22 10:50:22;;;;;;;;;;;640.50;1612.80;;;;;;5095918;28;19911;-73
2022/04/22 10:52:55;;;;;;;;;;;640.60;1612.80;;;;;;5114112;28;19950;-75
2022/04/22 10:55:21;;;;;;;;;;;640.10;1638.40;;;;;;5095815;28;20373;-72
2022/04/22 10:57:50;;;;;;;;;;;640.30;1612.80;;;;;;5114147;28;20010;-72
2022/04/22 11:00:17;;;;;;;;;;;640.50;1638.40;;;;;;5113821;28;19908;-73
2022/04/22 11:02:43;;;;;;;;;;;640.80;1612.80;;;;;;5113330;28;19907;-72
2022/04/22 11:05:23;;;;;;;;;;;665.60;1612.80;;;;;;5113960;28;19904;-72
2022/04/22 11:07:53;;;;;;;;;;;640.90;1587.20;;;;;;5105155;28;19904;-72
2022/04/22 11:10:21;;;;;;;;;;;665.70;1561.60;;;;;;5111465;28;19904;-74
2022/04/22 11:12:54;;;;;;;;;;;640.90;1510.40;;;;;;5113211;28;20264;-75
2022/04/22 11:15:38;;;;;;;;;;;640.80;1510.40;;;;;;5111037;28;19940;-73
2022/04/22 11:18:03;;;;;;;;;;;640.90;1536.00;;;;;;5109993;28;19942;-73
2022/04/22 11:20:29;;;;;;;;;;;665.80;1561.60;;;;;;5100939;28;19946;-71
2022/04/22 11:22:58;;;;;;;;;;;665.80;1536.00;;;;;;5102528;28;19953;-73
2022/04/22 11:25:25;;;;;;;;;;;665.70;1510.40;;;;;;5114009;28;19994;-72
2022/04/22 11:27:53;;;;;;;;;;;665.70;1484.80;;;;;;5115979;28;20002;-72
2022/04/22 11:30:19;;;;;;;39.15;4.72;;;640.90;1459.20;;;;;;5117364;28;19911;-72
2022/04/22 11:32:48;;;;;;;30.60;4.25;;;640.70;1484.80;;;;;;5117206;28;20035;-74
2022/04/22 11:35:22;;;;;;;26.92;4.75;;;640.70;1433.60;;;;;;5117323;28;20034;-74
2022/04/22 11:37:59;;;;;;;10.57;3.35;;;640.40;1433.60;;;;;;5117371;28;20016;-72
2022/04/22 11:40:25;;;;;;;16.70;3.70;;;640.00;1459.20;;;;;;5117253;28;20065;-74
2022/04/22 11:42:54;;;;;;;19.30;4.55;;;640.40;1433.60;;;;;;5117197;28;20125;-74
2022/04/22 11:45:21;;;;;;;15.60;3.58;;;640.80;1408.00;;;;;;5117087;28;20028;-74
2022/04/22 11:47:47;;;;;;;18.95;4.57;;;640.80;1382.40;;;;;;5117164;28;20041;-73
2022/04/22 11:50:21;;;;;;;26.30;5.10;;;666.00;1433.60;;;;;;5117087;28;20032;-72
2022/04/22 11:52:56;;;;;;;16.50;3.72;;;691.20;1382.40;;;;;;5098856;28;20024;-70
2022/04/22 11:55:22;;;;;;;19.33;4.15;;;666.30;1382.40;;;;;;5117248;28;20407;-72
2022/04/22 11:57:49;;;;;;;26.63;4.18;;;666.20;1382.40;;;;;;5117118;28;20016;-72
2022/04/22 12:05:52;;;;;;;13.18;3.67;;;640.90;1408.00;;;;;;5117309;28;20031;-72
2022/04/22 12:08:18;;;;;;;11.20;3.45;;;640.60;1433.60;;;;;;5098835;28;20016;-72
2022/04/22 12:10:47;;;;;;;18.13;4.10;;;640.30;1382.40;;;;;;5098460;28;20533;-71
2022/04/22 12:13:14;;;;;;;13.68;3.58;;;640.40;1408.00;;;;;;5116674;28;20024;-72
2022/04/22 12:15:45;;;;;;;21.63;3.05;;;640.30;1433.60;;;;;;5116535;28;20031;-71
2022/04/22 12:18:31;;;;;;;21.88;4.43;;;640.20;1433.60;;;;;;5116532;28;20038;-71
2022/04/22 12:20:57;;;;;;;14.95;3.13;;;640.80;1433.60;;;;;;5116771;28;20051;-73
2022/04/22 12:23:31;;;;;;;12.80;3.45;;;640.50;1433.60;;;;;;5116348;28;20024;-75
2022/04/22 12:25:57;;;;;;;18.48;3.72;;;640.30;1433.60;;;;;;5116632;28;20037;-72
2022/04/22 12:28:24;;;;;;;13.00;3.80;;;640.10;1408.00;;;;;;5116247;28;20497;-73
2022/04/22 12:30:50;;;;;;;13.00;4.25;;;640.20;1433.60;;;;;;5116389;28;20016;-72
2022/04/22 12:33:18;;;;;;;15.77;4.03;;;640.60;1459.20;;;;;;5116190;28;20535;-73
2022/04/22 12:35:45;;;;;;;15.32;3.85;;;640.70;1433.60;;;;;;5116243;28;20027;-69
2022/04/22 12:38:13;;;;;;;14.52;3.72;;;640.30;1433.60;;;;;;5116009;28;20027;-71
2022/04/22 12:40:47;;;;;;;17.10;4.05;;;640.00;1408.00;;;;;;5115657;28;20118;-72
2022/04/22 12:43:31;;;;;;;23.42;3.83;;;640.50;1408.00;;;;;;5116113;28;20024;-72
2022/04/22 12:52:24;;;;;;;37.60;4.97;;;666.00;1382.40;;;;;;5116159;28;20054;-71
2022/04/22 12:54:51;;;;;;;30.20;4.68;;;665.70;1408.00;;;;;;5115842;28;20032;-70
2022/04/22 12:57:23;;;;;;;18.42;4.82;;;640.70;1433.60;;;;;;5115684;28;20026;-75
2022/04/22 12:59:55;;;;;;;13.98;4.15;;;640.40;1433.60;;;;;;5115816;28;20024;-72
2022/04/22 13:02:33;;;;;;;13.35;3.83;;;640.00;1459.20;;;;;;5115717;28;20467;-73
2022/04/22 13:05:03;;;;;;;20.05;4.15;;;615.20;1459.20;;;;;;5116044;28;20375;-72
2022/04/22 13:07:44;;;;;;;30.63;5.53;;;615.30;1459.20;;;;;;5115691;28;20068;-72
2022/04/22 13:10:14;;;;;;;29.83;4.43;;;615.30;1433.60;;;;;;5097276;28;20062;-72
2022/04/22 13:12:42;;;;;;;31.73;5.20;;;615.30;1433.60;;;;;;5097017;28;20484;-75
2022/04/22 13:15:18;;;;;;;24.05;5.00;;;615.20;1459.20;;;;;;5115460;28;20472;-72
2022/04/22 13:17:53;;;;;;;30.85;4.35;;;615.10;1433.60;;;;;;5114817;28;20419;-72
2022/04/22 13:20:20;;;;;;;29.90;4.18;;;615.10;1408.00;;;;;;5115417;28;20058;-76
2022/04/22 13:22:47;;;;;;;29.05;4.65;;;615.20;1459.20;;;;;;5097108;28;20015;-71
2022/04/22 13:25:14;;;;;;;29.42;5.07;;;615.10;1484.80;;;;;;5115266;28;20531;-71
2022/04/22 13:27:41;;;;;;;28.38;4.85;;;615.00;1459.20;;;;;;5115332;28;20043;-73